createdAt,value
2022-11-05T00:07:07.226Z,74645.66
2022-11-05T00:17:12.191Z,74641.63
2022-11-05T00:27:16.764Z,74649.72
2022-11-05T00:37:18.880Z,74651.75
2022-11-05T00:47:45.944Z,74641.63
2022-11-05T00:57:48.327Z,74641.63
2022-11-05T01:07:53.378Z,74633.53
2022-11-05T01:17:57.836Z,74643.66
2022-11-05T01:28:03.074Z,74661.84
2022-11-05T01:38:08.564Z,74671.97
2022-11-05T01:48:30.830Z,74690.19
2022-11-05T01:58:49.293Z,74706.38
2022-11-05T02:09:18.345Z,74726.59
2022-11-05T02:19:44.991Z,74738.75
2022-11-05T02:29:59.743Z,74740.75
2022-11-05T02:40:16.991Z,74752.91
2022-11-05T02:50:27.406Z,74767.06
2022-11-05T03:00:53.011Z,74783.25
2022-11-05T03:11:21.295Z,74779.19
2022-11-05T03:21:29.336Z,74795.38
2022-11-05T03:31:31.481Z,74803.47
2022-11-05T03:41:33.975Z,74803.47
2022-11-05T03:51:49.974Z,74821.69
2022-11-05T04:01:55.606Z,74858.13
2022-11-05T04:12:18.770Z,74874.31
2022-11-05T04:22:39.994Z,74888.47
2022-11-05T04:33:06.110Z,74912.75
2022-11-05T04:43:15.059Z,74916.78
2022-11-05T04:53:17.456Z,74947.16
2022-11-05T05:03:26.619Z,74961.31
2022-11-05T05:13:28.550Z,74971.44
2022-11-05T05:23:38.650Z,74981.53
2022-11-05T05:33:40.757Z,75013.91
2022-11-05T05:43:46.500Z,75038.19
2022-11-05T05:53:48.568Z,75070.56
2022-11-05T06:03:50.682Z,75084.75
2022-11-05T06:13:52.749Z,75088.78
2022-11-05T06:23:55.140Z,75096.88
2022-11-05T06:34:01.622Z,75098.91
2022-11-05T06:44:03.699Z,75088.78
2022-11-05T06:54:08.317Z,75070.56
2022-11-05T07:04:12.312Z,75062.47
2022-11-05T07:14:18.900Z,75058.44
2022-11-05T07:24:22.288Z,75046.28
2022-11-05T07:34:29.473Z,75044.28
2022-11-05T07:44:34.535Z,75050.34
2022-11-05T07:54:36.951Z,75050.34
2022-11-05T08:04:42.621Z,75060.47
2022-11-05T08:14:47.048Z,75068.56
2022-11-05T08:24:49.082Z,75056.41
2022-11-05T08:34:56.150Z,75050.34
2022-11-05T08:44:58.627Z,75054.38
2022-11-05T08:55:05.630Z,74985.59
2022-11-05T09:05:10.385Z,75022.00
2022-11-05T09:15:27.115Z,75032.13
2022-11-05T09:25:33.693Z,75038.19
2022-11-05T09:35:41.744Z,75030.09
2022-11-05T09:45:52.907Z,75032.13
2022-11-05T09:55:57.004Z,75032.13
2022-11-05T10:06:07.625Z,75011.91
2022-11-05T10:16:21.620Z,75022.00
2022-11-05T10:26:30.014Z,75017.97
2022-11-05T10:36:35.298Z,74997.72
2022-11-05T10:47:09.557Z,74965.34
2022-11-05T10:57:50.427Z,74937.03
2022-11-05T11:07:58.513Z,74939.06
2022-11-05T11:18:39.859Z,74985.59
2022-11-05T11:28:51.125Z,74983.56
2022-11-05T11:39:04.412Z,75003.81
2022-11-05T11:49:12.590Z,75013.91
2022-11-05T11:59:54.028Z,75026.06
2022-11-05T12:10:10.413Z,75030.09
2022-11-05T12:20:34.742Z,75036.19
2022-11-05T12:30:51.771Z,75030.09
2022-11-05T12:41:18.892Z,75030.09
2022-11-05T12:51:31.612Z,75042.25
2022-11-05T13:01:42.529Z,75062.47
2022-11-05T13:12:13.903Z,75082.72
2022-11-05T13:22:30.115Z,75092.84
2022-11-05T13:32:35.838Z,75127.22
2022-11-05T13:42:58.165Z,75111.03
2022-11-05T13:53:23.712Z,75149.50
2022-11-05T14:03:30.546Z,75171.75
2022-11-05T14:14:01.082Z,75183.88
2022-11-05T14:24:24.061Z,75200.06
2022-11-05T14:44:01.498Z,75240.56
2022-11-05T14:54:23.244Z,75248.66
2022-11-05T15:04:33.504Z,75244.59
2022-11-05T15:14:55.150Z,75244.59
2022-11-05T15:24:59.511Z,75252.69
2022-11-05T15:35:28.049Z,75256.75
2022-11-05T15:45:32.526Z,75252.69
2022-11-05T15:55:48.715Z,75248.66
2022-11-05T16:05:51.269Z,75252.69
2022-11-05T16:15:59.607Z,75252.69
2022-11-05T16:26:03.943Z,75256.75
2022-11-05T16:36:13.141Z,75256.75
2022-11-05T16:46:15.673Z,75252.69
2022-11-05T16:56:21.632Z,75242.56
2022-11-05T17:06:23.634Z,75234.47
2022-11-05T17:16:28.336Z,75240.56
2022-11-05T17:26:30.480Z,75252.69
2022-11-05T17:36:35.716Z,75248.66
2022-11-05T17:46:40.229Z,75252.69
2022-11-05T17:56:45.007Z,75252.69
2022-11-05T18:06:51.771Z,75260.78
2022-11-05T18:17:01.839Z,75252.69
2022-11-05T18:27:06.117Z,75264.84
2022-11-05T18:37:14.790Z,75272.94
2022-11-05T18:47:19.906Z,75272.94
2022-11-05T18:57:22.010Z,75291.13
2022-11-05T19:07:27.977Z,75309.34
2022-11-05T19:17:33.902Z,75325.53
2022-11-05T19:27:41.853Z,75333.63
2022-11-05T19:37:47.139Z,75355.91
2022-11-05T19:47:50.407Z,75357.91
2022-11-05T19:57:53.738Z,75357.91
2022-11-05T20:07:56.463Z,75370.06
2022-11-05T20:18:00.932Z,75353.88
2022-11-05T20:28:03.100Z,75364.00
2022-11-05T20:38:09.293Z,75357.91
2022-11-05T20:48:14.237Z,75357.91
2022-11-05T20:58:19.717Z,75366.00
2022-11-05T21:08:22.642Z,75368.03
2022-11-05T21:18:32.740Z,75372.09
2022-11-05T21:28:35.436Z,75361.97
2022-11-05T21:38:43.804Z,75380.19
2022-11-05T21:48:49.935Z,75374.09
2022-11-05T21:59:15.168Z,75378.16
2022-11-05T22:09:20.833Z,75388.28
2022-11-05T22:19:24.975Z,75382.19
2022-11-05T22:29:29.725Z,75394.34
2022-11-05T22:39:39.270Z,75412.56
2022-11-05T22:49:43.480Z,75414.56
2022-11-05T22:59:45.591Z,75408.50
2022-11-05T23:10:10.407Z,75418.63
2022-11-05T23:20:39.438Z,75434.81
2022-11-05T23:31:03.570Z,75442.91
2022-11-05T23:41:24.225Z,75451.00
2022-11-05T23:51:31.040Z,75469.22
